sensor_id;sensor_type;location;lat;lon;timestamp;temperature;humidity
3842;DHT22;1936;47.074;15.336;2024-03-06T00:00:33;5.70;99.90
3842;DHT22;1936;47.074;15.336;2024-03-06T00:02:36;5.50;99.90
3842;DHT22;1936;47.074;15.336;2024-03-06T00:04:40;5.50;99.90
3842;DHT22;1936;47.074;15.336;2024-03-06T00:06:43;5.50;99.90
3842;DHT22;1936;47.074;15.336;2024-03-06T00:08:46;5.50;99.90
3842;DHT22;1936;47.074;15.336;2024-03-06T00:10:50;5.50;99.90
3842;DHT22;1936;47.074;15.336;2024-03-06T00:12:54;5.50;99.90
3842;DHT22;1936;47.074;15.336;2024-03-06T00:14:57;5.50;99.90
3842;DHT22;1936;47.074;15.336;2024-03-06T00:17:01;5.50;99.90
3842;DHT22;1936;47.074;15.336;2024-03-06T00:19:06;5.40;99.90
3842;DHT22;1936;47.074;15.336;2024-03-06T00:21:10;5.50;99.90
3842;DHT22;1936;47.074;15.336;2024-03-06T00:23:13;5.40;99.90
3842;DHT22;1936;47.074;15.336;2024-03-06T00:25:17;5.50;99.90
3842;DHT22;1936;47.074;15.336;2024-03-06T00:27:22;5.60;99.90
3842;DHT22;1936;47.074;15.336;2024-03-06T00:29:25;5.60;99.90
3842;DHT22;1936;47.074;15.336;2024-03-06T00:31:33;5.60;99.90
3842;DHT22;1936;47.074;15.336;2024-03-06T00:33:36;5.70;99.90
3842;DHT22;1936;47.074;15.336;2024-03-06T00:35:39;5.70;99.90
3842;DHT22;1936;47.074;15.336;2024-03-06T00:37:42;5.70;99.90
3842;DHT22;1936;47.074;15.336;2024-03-06T00:39:46;5.80;99.90
3842;DHT22;1936;47.074;15.336;2024-03-06T00:41:49;5.70;99.90
3842;DHT22;1936;47.074;15.336;2024-03-06T00:43:54;5.70;99.90
3842;DHT22;1936;47.074;15.336;2024-03-06T00:45:58;5.70;99.90
3842;DHT22;1936;47.074;15.336;2024-03-06T00:48:02;5.80;99.90
3842;DHT22;1936;47.074;15.336;2024-03-06T00:50:06;5.80;99.90
3842;DHT22;1936;47.074;15.336;2024-03-06T00:52:09;5.80;99.90
3842;DHT22;1936;47.074;15.336;2024-03-06T00:54:13;5.80;99.90
3842;DHT22;1936;47.074;15.336;2024-03-06T00:56:16;5.80;99.90
3842;DHT22;1936;47.074;15.336;2024-03-06T00:58:19;5.80;99.90
3842;DHT22;1936;47.074;15.336;2024-03-06T01:00:24;5.80;99.90
3842;DHT22;1936;47.074;15.336;2024-03-06T01:02:27;5.70;99.90
3842;DHT22;1936;47.074;15.336;2024-03-06T01:04:31;5.60;99.90
3842;DHT22;1936;47.074;15.336;2024-03-06T01:06:34;5.60;99.90
3842;DHT22;1936;47.074;15.336;2024-03-06T01:08:38;5.50;99.90
3842;DHT22;1936;47.074;15.336;2024-03-06T01:10:41;5.60;99.90
3842;DHT22;1936;47.074;15.336;2024-03-06T01:12:44;5.50;99.90
3842;DHT22;1936;47.074;15.336;2024-03-06T01:14:48;5.60;99.90
3842;DHT22;1936;47.074;15.336;2024-03-06T01:16:53;5.60;99.90
3842;DHT22;1936;47.074;15.336;2024-03-06T01:18:56;5.50;99.90
3842;DHT22;1936;47.074;15.336;2024-03-06T01:20:59;5.40;99.90
3842;DHT22;1936;47.074;15.336;2024-03-06T01:23:02;5.40;99.90
3842;DHT22;1936;47.074;15.336;2024-03-06T01:25:06;5.30;99.90
3842;DHT22;1936;47.074;15.336;2024-03-06T01:27:11;5.30;99.90
3842;DHT22;1936;47.074;15.336;2024-03-06T01:29:14;5.30;99.90
3842;DHT22;1936;47.074;15.336;2024-03-06T01:31:18;5.20;99.90
3842;DHT22;1936;47.074;15.336;2024-03-06T01:33:23;5.20;99.90
3842;DHT22;1936;47.074;15.336;2024-03-06T01:35:26;5.20;99.90
3842;DHT22;1936;47.074;15.336;2024-03-06T01:37:28;5.10;99.90
3842;DHT22;1936;47.074;15.336;2024-03-06T01:39:32;5.10;99.90
3842;DHT22;1936;47.074;15.336;2024-03-06T01:41:41;5.10;99.90
3842;DHT22;1936;47.074;15.336;2024-03-06T01:43:47;5.10;99.90
3842;DHT22;1936;47.074;15.336;2024-03-06T01:45:51;4.90;99.90
3842;DHT22;1936;47.074;15.336;2024-03-06T01:47:56;4.90;99.90
3842;DHT22;1936;47.074;15.336;2024-03-06T01:50:01;4.90;99.90
3842;DHT22;1936;47.074;15.336;2024-03-06T01:52:05;4.90;99.90
3842;DHT22;1936;47.074;15.336;2024-03-06T01:54:09;4.90;99.90
3842;DHT22;1936;47.074;15.336;2024-03-06T01:56:12;4.90;99.90
3842;DHT22;1936;47.074;15.336;2024-03-06T01:58:20;4.90;99.90
3842;DHT22;1936;47.074;15.336;2024-03-06T02:00:24;4.90;99.90
3842;DHT22;1936;47.074;15.336;2024-03-06T02:02:28;4.90;99.90
3842;DHT22;1936;47.074;15.336;2024-03-06T02:04:31;4.90;99.90
3842;DHT22;1936;47.074;15.336;2024-03-06T02:06:35;4.80;99.90
3842;DHT22;1936;47.074;15.336;2024-03-06T02:08:39;4.90;99.90
3842;DHT22;1936;47.074;15.336;2024-03-06T02:10:44;4.80;99.90
3842;DHT22;1936;47.074;15.336;2024-03-06T02:12:48;4.80;99.90
3842;DHT22;1936;47.074;15.336;2024-03-06T02:14:52;4.80;99.90
3842;DHT22;1936;47.074;15.336;2024-03-06T02:16:55;4.80;99.90
3842;DHT22;1936;47.074;15.336;2024-03-06T02:18:59;4.70;99.90
3842;DHT22;1936;47.074;15.336;2024-03-06T02:21:04;4.80;99.90
3842;DHT22;1936;47.074;15.336;2024-03-06T02:23:09;4.70;99.90
3842;DHT22;1936;47.074;15.336;2024-03-06T02:25:12;4.60;99.90
3842;DHT22;1936;47.074;15.336;2024-03-06T02:27:16;4.60;99.90
3842;DHT22;1936;47.074;15.336;2024-03-06T02:29:23;4.50;99.90
3842;DHT22;1936;47.074;15.336;2024-03-06T02:31:26;4.50;99.90
3842;DHT22;1936;47.074;15.336;2024-03-06T02:33:31;4.50;99.90
3842;DHT22;1936;47.074;15.336;2024-03-06T02:35:33;4.50;99.90
3842;DHT22;1936;47.074;15.336;2024-03-06T02:37:41;4.50;99.90
3842;DHT22;1936;47.074;15.336;2024-03-06T02:39:45;4.50;99.90
3842;DHT22;1936;47.074;15.336;2024-03-06T02:41:47;4.40;99.90
3842;DHT22;1936;47.074;15.336;2024-03-06T02:43:50;4.40;99.90
3842;DHT22;1936;47.074;15.336;2024-03-06T02:45:54;4.30;99.90
3842;DHT22;1936;47.074;15.336;2024-03-06T02:47:58;4.30;99.90
3842;DHT22;1936;47.074;15.336;2024-03-06T02:50:00;4.30;99.90
3842;DHT22;1936;47.074;15.336;2024-03-06T02:52:04;4.30;99.90
3842;DHT22;1936;47.074;15.336;2024-03-06T02:54:08;4.30;99.90
3842;DHT22;1936;47.074;15.336;2024-03-06T02:56:16;4.30;99.90
3842;DHT22;1936;47.074;15.336;2024-03-06T02:58:19;4.20;99.90
3842;DHT22;1936;47.074;15.336;2024-03-06T03:00:23;4.20;99.90
3842;DHT22;1936;47.074;15.336;2024-03-06T03:02:27;4.20;99.90
3842;DHT22;1936;47.074;15.336;2024-03-06T03:04:30;4.20;99.90
3842;DHT22;1936;47.074;15.336;2024-03-06T03:06:34;4.20;99.90
3842;DHT22;1936;47.074;15.336;2024-03-06T03:08:39;4.20;99.90
3842;DHT22;1936;47.074;15.336;2024-03-06T03:10:44;4.20;99.90
3842;DHT22;1936;47.074;15.336;2024-03-06T03:12:47;4.20;99.90
3842;DHT22;1936;47.074;15.336;2024-03-06T03:14:50;4.30;99.90
3842;DHT22;1936;47.074;15.336;2024-03-06T03:16:54;4.20;99.90
3842;DHT22;1936;47.074;15.336;2024-03-06T03:18:56;4.10;99.90
3842;DHT22;1936;47.074;15.336;2024-03-06T03:20:59;4.10;99.90
3842;DHT22;1936;47.074;15.336;2024-03-06T03:23:03;4.20;99.90
3842;DHT22;1936;47.074;15.336;2024-03-06T03:25:09;4.20;99.90
3842;DHT22;1936;47.074;15.336;2024-03-06T03:27:13;4.30;99.90
3842;DHT22;1936;47.074;15.336;2024-03-06T03:29:16;4.30;99.90
3842;DHT22;1936;47.074;15.336;2024-03-06T03:31:20;4.30;99.90
3842;DHT22;1936;47.074;15.336;2024-03-06T03:33:24;4.30;99.90
3842;DHT22;1936;47.074;15.336;2024-03-06T03:35:26;4.30;99.90
3842;DHT22;1936;47.074;15.336;2024-03-06T03:37:30;4.40;99.90
3842;DHT22;1936;47.074;15.336;2024-03-06T03:39:33;4.50;99.90
3842;DHT22;1936;47.074;15.336;2024-03-06T03:41:37;4.50;99.90
3842;DHT22;1936;47.074;15.336;2024-03-06T03:43:42;4.40;99.90
3842;DHT22;1936;47.074;15.336;2024-03-06T03:45:45;4.50;99.90
3842;DHT22;1936;47.074;15.336;2024-03-06T03:47:49;4.50;99.90
3842;DHT22;1936;47.074;15.336;2024-03-06T03:49:52;4.50;99.90
3842;DHT22;1936;47.074;15.336;2024-03-06T03:52:10;4.60;99.90
3842;DHT22;1936;47.074;15.336;2024-03-06T03:54:14;4.60;99.90
3842;DHT22;1936;47.074;15.336;2024-03-06T03:56:17;4.70;99.90
3842;DHT22;1936;47.074;15.336;2024-03-06T03:58:20;4.70;99.90
3842;DHT22;1936;47.074;15.336;2024-03-06T04:00:25;4.70;99.90
3842;DHT22;1936;47.074;15.336;2024-03-06T04:02:29;4.70;99.90
3842;DHT22;1936;47.074;15.336;2024-03-06T04:04:32;4.70;99.90
3842;DHT22;1936;47.074;15.336;2024-03-06T04:06:35;4.70;99.90
3842;DHT22;1936;47.074;15.336;2024-03-06T04:08:39;4.70;99.90
3842;DHT22;1936;47.074;15.336;2024-03-06T04:10:43;4.80;99.90
3842;DHT22;1936;47.074;15.336;2024-03-06T04:12:47;4.70;99.90
3842;DHT22;1936;47.074;15.336;2024-03-06T04:14:51;4.70;99.90
3842;DHT22;1936;47.074;15.336;2024-03-06T04:16:56;4.80;99.90
3842;DHT22;1936;47.074;15.336;2024-03-06T04:19:00;4.80;99.90
3842;DHT22;1936;47.074;15.336;2024-03-06T04:21:04;4.80;99.90
3842;DHT22;1936;47.074;15.336;2024-03-06T04:23:07;4.80;99.90
3842;DHT22;1936;47.074;15.336;2024-03-06T04:25:11;4.90;99.90
3842;DHT22;1936;47.074;15.336;2024-03-06T04:27:14;4.90;99.90
3842;DHT22;1936;47.074;15.336;2024-03-06T04:29:18;4.90;99.90
3842;DHT22;1936;47.074;15.336;2024-03-06T04:31:22;4.90;99.90
3842;DHT22;1936;47.074;15.336;2024-03-06T04:33:27;4.90;99.90
3842;DHT22;1936;47.074;15.336;2024-03-06T04:35:30;5.00;99.90
3842;DHT22;1936;47.074;15.336;2024-03-06T04:37:34;5.00;99.90
3842;DHT22;1936;47.074;15.336;2024-03-06T04:39:37;5.00;99.90
3842;DHT22;1936;47.074;15.336;2024-03-06T04:41:40;5.00;99.90
3842;DHT22;1936;47.074;15.336;2024-03-06T04:43:43;5.00;99.90
3842;DHT22;1936;47.074;15.336;2024-03-06T04:45:47;5.00;99.90
3842;DHT22;1936;47.074;15.336;2024-03-06T04:47:49;5.10;99.90
3842;DHT22;1936;47.074;15.336;2024-03-06T04:49:54;5.10;99.90
3842;DHT22;1936;47.074;15.336;2024-03-06T04:51:58;5.10;99.90
3842;DHT22;1936;47.074;15.336;2024-03-06T04:54:01;5.10;99.90
3842;DHT22;1936;47.074;15.336;2024-03-06T04:56:05;5.10;99.90
3842;DHT22;1936;47.074;15.336;2024-03-06T04:58:10;5.10;99.90
3842;DHT22;1936;47.074;15.336;2024-03-06T05:00:14;5.10;99.90
3842;DHT22;1936;47.074;15.336;2024-03-06T05:02:18;5.10;99.90
3842;DHT22;1936;47.074;15.336;2024-03-06T05:04:21;5.10;99.90
3842;DHT22;1936;47.074;15.336;2024-03-06T05:06:44;5.20;99.90
3842;DHT22;1936;47.074;15.336;2024-03-06T05:09:05;5.20;99.90
3842;DHT22;1936;47.074;15.336;2024-03-06T05:11:25;5.20;99.90
3842;DHT22;1936;47.074;15.336;2024-03-06T05:13:46;5.20;99.90
3842;DHT22;1936;47.074;15.336;2024-03-06T05:16:08;5.20;99.90
3842;DHT22;1936;47.074;15.336;2024-03-06T05:18:29;5.20;99.90
3842;DHT22;1936;47.074;15.336;2024-03-06T05:20:50;5.30;99.90
3842;DHT22;1936;47.074;15.336;2024-03-06T05:23:12;5.30;99.90
3842;DHT22;1936;47.074;15.336;2024-03-06T05:25:34;5.40;99.90
3842;DHT22;1936;47.074;15.336;2024-03-06T05:27:54;5.40;99.90
3842;DHT22;1936;47.074;15.336;2024-03-06T05:30:16;5.30;99.90
3842;DHT22;1936;47.074;15.336;2024-03-06T05:32:37;5.40;99.90
3842;DHT22;1936;47.074;15.336;2024-03-06T05:34:58;5.40;99.90
3842;DHT22;1936;47.074;15.336;2024-03-06T05:37:19;5.40;99.90
3842;DHT22;1936;47.074;15.336;2024-03-06T05:39:42;5.50;99.90
3842;DHT22;1936;47.074;15.336;2024-03-06T05:42:03;5.50;99.90
3842;DHT22;1936;47.074;15.336;2024-03-06T05:44:24;5.50;99.90
3842;DHT22;1936;47.074;15.336;2024-03-06T05:46:46;5.50;99.90
3842;DHT22;1936;47.074;15.336;2024-03-06T05:49:07;5.50;99.90
3842;DHT22;1936;47.074;15.336;2024-03-06T05:51:27;5.50;99.90
3842;DHT22;1936;47.074;15.336;2024-03-06T05:53:48;5.50;99.90
3842;DHT22;1936;47.074;15.336;2024-03-06T05:56:11;5.60;99.90
3842;DHT22;1936;47.074;15.336;2024-03-06T05:58:32;5.70;99.90
3842;DHT22;1936;47.074;15.336;2024-03-06T06:00:36;5.70;99.90
3842;DHT22;1936;47.074;15.336;2024-03-06T06:02:40;5.80;99.90
3842;DHT22;1936;47.074;15.336;2024-03-06T06:04:47;5.80;99.90
3842;DHT22;1936;47.074;15.336;2024-03-06T06:07:10;5.90;99.90
3842;DHT22;1936;47.074;15.336;2024-03-06T06:09:14;5.80;99.90
3842;DHT22;1936;47.074;15.336;2024-03-06T06:11:20;5.80;99.90
3842;DHT22;1936;47.074;15.336;2024-03-06T06:13:24;5.90;99.90
3842;DHT22;1936;47.074;15.336;2024-03-06T06:15:27;5.90;99.90
3842;DHT22;1936;47.074;15.336;2024-03-06T06:17:31;5.90;99.90
3842;DHT22;1936;47.074;15.336;2024-03-06T06:19:36;5.90;99.90
3842;DHT22;1936;47.074;15.336;2024-03-06T06:21:39;6.00;99.90
3842;DHT22;1936;47.074;15.336;2024-03-06T06:23:43;6.10;99.90
3842;DHT22;1936;47.074;15.336;2024-03-06T06:25:45;6.10;99.90
3842;DHT22;1936;47.074;15.336;2024-03-06T06:27:50;6.20;99.90
3842;DHT22;1936;47.074;15.336;2024-03-06T06:29:56;6.30;99.90
3842;DHT22;1936;47.074;15.336;2024-03-06T06:31:59;6.30;99.90
3842;DHT22;1936;47.074;15.336;2024-03-06T06:34:03;6.40;99.90
3842;DHT22;1936;47.074;15.336;2024-03-06T06:36:07;6.50;99.90
3842;DHT22;1936;47.074;15.336;2024-03-06T06:38:10;6.60;99.90
3842;DHT22;1936;47.074;15.336;2024-03-06T06:40:14;6.60;99.90
3842;DHT22;1936;47.074;15.336;2024-03-06T06:42:18;6.70;99.90
3842;DHT22;1936;47.074;15.336;2024-03-06T06:44:23;6.70;99.90
3842;DHT22;1936;47.074;15.336;2024-03-06T06:46:26;6.80;99.90
3842;DHT22;1936;47.074;15.336;2024-03-06T06:48:29;6.80;99.90
3842;DHT22;1936;47.074;15.336;2024-03-06T06:50:33;6.90;99.90
3842;DHT22;1936;47.074;15.336;2024-03-06T06:52:37;7.00;99.90
3842;DHT22;1936;47.074;15.336;2024-03-06T06:54:40;7.00;99.90
3842;DHT22;1936;47.074;15.336;2024-03-06T06:56:44;7.00;99.90
3842;DHT22;1936;47.074;15.336;2024-03-06T06:58:47;7.00;99.90
3842;DHT22;1936;47.074;15.336;2024-03-06T07:00:52;7.10;99.90
3842;DHT22;1936;47.074;15.336;2024-03-06T07:02:55;7.20;99.90
3842;DHT22;1936;47.074;15.336;2024-03-06T07:05:00;7.20;99.90
3842;DHT22;1936;47.074;15.336;2024-03-06T07:07:05;7.10;99.90
3842;DHT22;1936;47.074;15.336;2024-03-06T07:09:08;7.20;99.90
3842;DHT22;1936;47.074;15.336;2024-03-06T07:11:13;7.30;99.90
3842;DHT22;1936;47.074;15.336;2024-03-06T07:13:17;7.30;99.90
3842;DHT22;1936;47.074;15.336;2024-03-06T07:15:20;7.40;99.90
3842;DHT22;1936;47.074;15.336;2024-03-06T07:17:28;7.40;99.90
3842;DHT22;1936;47.074;15.336;2024-03-06T07:19:34;7.40;99.90
3842;DHT22;1936;47.074;15.336;2024-03-06T07:21:58;7.50;99.90
3842;DHT22;1936;47.074;15.336;2024-03-06T07:24:01;7.60;99.90
3842;DHT22;1936;47.074;15.336;2024-03-06T07:26:04;7.60;99.90
3842;DHT22;1936;47.074;15.336;2024-03-06T07:28:07;7.60;99.90
3842;DHT22;1936;47.074;15.336;2024-03-06T07:30:12;7.70;99.90
3842;DHT22;1936;47.074;15.336;2024-03-06T07:32:16;7.70;99.90
3842;DHT22;1936;47.074;15.336;2024-03-06T07:34:20;7.80;99.90
3842;DHT22;1936;47.074;15.336;2024-03-06T07:36:24;7.90;99.90
3842;DHT22;1936;47.074;15.336;2024-03-06T07:38:27;7.90;99.90
3842;DHT22;1936;47.074;15.336;2024-03-06T07:40:30;8.00;99.90
3842;DHT22;1936;47.074;15.336;2024-03-06T07:42:34;8.10;99.90
3842;DHT22;1936;47.074;15.336;2024-03-06T07:44:38;8.10;99.90
3842;DHT22;1936;47.074;15.336;2024-03-06T07:46:42;8.20;99.90
3842;DHT22;1936;47.074;15.336;2024-03-06T07:48:45;8.20;99.90
3842;DHT22;1936;47.074;15.336;2024-03-06T07:50:49;8.30;99.90
3842;DHT22;1936;47.074;15.336;2024-03-06T07:52:53;8.30;99.90
3842;DHT22;1936;47.074;15.336;2024-03-06T07:54:57;8.20;99.90
3842;DHT22;1936;47.074;15.336;2024-03-06T07:57:00;8.30;99.90
3842;DHT22;1936;47.074;15.336;2024-03-06T07:59:04;8.30;99.90
3842;DHT22;1936;47.074;15.336;2024-03-06T08:01:07;8.30;99.90
3842;DHT22;1936;47.074;15.336;2024-03-06T08:03:10;8.20;99.90
3842;DHT22;1936;47.074;15.336;2024-03-06T08:05:16;8.20;99.90
3842;DHT22;1936;47.074;15.336;2024-03-06T08:07:21;8.30;99.90
3842;DHT22;1936;47.074;15.336;2024-03-06T08:09:24;8.30;99.90
3842;DHT22;1936;47.074;15.336;2024-03-06T08:11:30;8.30;99.90
3842;DHT22;1936;47.074;15.336;2024-03-06T08:13:35;8.40;99.90
3842;DHT22;1936;47.074;15.336;2024-03-06T08:15:39;8.40;99.90
3842;DHT22;1936;47.074;15.336;2024-03-06T08:17:43;8.40;99.90
3842;DHT22;1936;47.074;15.336;2024-03-06T08:19:46;8.50;99.90
3842;DHT22;1936;47.074;15.336;2024-03-06T08:21:49;8.60;99.90
3842;DHT22;1936;47.074;15.336;2024-03-06T08:23:54;8.60;99.90
3842;DHT22;1936;47.074;15.336;2024-03-06T08:25:58;8.70;99.90
3842;DHT22;1936;47.074;15.336;2024-03-06T08:28:02;8.80;99.90
3842;DHT22;1936;47.074;15.336;2024-03-06T08:30:08;8.70;99.90
3842;DHT22;1936;47.074;15.336;2024-03-06T08:32:12;8.70;99.90
3842;DHT22;1936;47.074;15.336;2024-03-06T08:34:15;8.80;99.90
3842;DHT22;1936;47.074;15.336;2024-03-06T08:36:20;8.80;99.90
3842;DHT22;1936;47.074;15.336;2024-03-06T08:38:24;8.70;99.90
3842;DHT22;1936;47.074;15.336;2024-03-06T08:40:29;8.80;99.90
3842;DHT22;1936;47.074;15.336;2024-03-06T08:42:33;8.90;99.90
3842;DHT22;1936;47.074;15.336;2024-03-06T08:44:36;9.00;99.90
3842;DHT22;1936;47.074;15.336;2024-03-06T08:46:40;9.00;99.90
3842;DHT22;1936;47.074;15.336;2024-03-06T08:48:43;9.00;99.90
3842;DHT22;1936;47.074;15.336;2024-03-06T08:50:48;9.10;99.90
3842;DHT22;1936;47.074;15.336;2024-03-06T08:52:53;9.00;99.90
3842;DHT22;1936;47.074;15.336;2024-03-06T08:54:56;9.00;99.90
3842;DHT22;1936;47.074;15.336;2024-03-06T08:57:01;9.00;99.90
3842;DHT22;1936;47.074;15.336;2024-03-06T08:59:05;9.10;99.90
3842;DHT22;1936;47.074;15.336;2024-03-06T09:01:08;9.00;99.90
3842;DHT22;1936;47.074;15.336;2024-03-06T09:03:12;9.10;99.90
3842;DHT22;1936;47.074;15.336;2024-03-06T09:05:15;9.10;99.90
3842;DHT22;1936;47.074;15.336;2024-03-06T09:07:19;9.10;99.90
3842;DHT22;1936;47.074;15.336;2024-03-06T09:09:25;9.20;99.90
3842;DHT22;1936;47.074;15.336;2024-03-06T09:11:30;9.20;99.90
3842;DHT22;1936;47.074;15.336;2024-03-06T09:13:35;9.20;99.90
3842;DHT22;1936;47.074;15.336;2024-03-06T09:15:39;9.10;99.90
3842;DHT22;1936;47.074;15.336;2024-03-06T09:17:43;9.10;99.90
3842;DHT22;1936;47.074;15.336;2024-03-06T09:19:48;9.10;99.90
3842;DHT22;1936;47.074;15.336;2024-03-06T09:22:09;9.00;99.90
3842;DHT22;1936;47.074;15.336;2024-03-06T09:24:12;9.20;99.90
3842;DHT22;1936;47.074;15.336;2024-03-06T09:26:16;9.30;99.90
3842;DHT22;1936;47.074;15.336;2024-03-06T09:28:19;9.20;99.90
3842;DHT22;1936;47.074;15.336;2024-03-06T09:30:25;9.30;99.90
3842;DHT22;1936;47.074;15.336;2024-03-06T09:32:30;9.30;99.90
3842;DHT22;1936;47.074;15.336;2024-03-06T09:34:36;9.40;99.90
3842;DHT22;1936;47.074;15.336;2024-03-06T09:36:40;9.50;99.90
3842;DHT22;1936;47.074;15.336;2024-03-06T09:38:47;9.40;99.90
3842;DHT22;1936;47.074;15.336;2024-03-06T09:40:50;9.50;99.90
3842;DHT22;1936;47.074;15.336;2024-03-06T09:42:54;9.50;99.90
3842;DHT22;1936;47.074;15.336;2024-03-06T09:44:58;9.50;99.90
3842;DHT22;1936;47.074;15.336;2024-03-06T09:47:03;9.50;99.90
3842;DHT22;1936;47.074;15.336;2024-03-06T09:49:09;9.40;99.90
3842;DHT22;1936;47.074;15.336;2024-03-06T09:51:13;9.40;99.90
3842;DHT22;1936;47.074;15.336;2024-03-06T09:53:17;9.50;99.90
3842;DHT22;1936;47.074;15.336;2024-03-06T09:55:22;9.50;99.90
3842;DHT22;1936;47.074;15.336;2024-03-06T09:57:26;9.60;99.90
3842;DHT22;1936;47.074;15.336;2024-03-06T09:59:29;9.60;99.90
3842;DHT22;1936;47.074;15.336;2024-03-06T10:01:33;9.70;99.90
3842;DHT22;1936;47.074;15.336;2024-03-06T10:03:40;9.70;99.90
3842;DHT22;1936;47.074;15.336;2024-03-06T10:05:44;9.60;99.90
3842;DHT22;1936;47.074;15.336;2024-03-06T10:07:49;9.50;99.90
3842;DHT22;1936;47.074;15.336;2024-03-06T10:09:53;9.50;99.90
3842;DHT22;1936;47.074;15.336;2024-03-06T10:11:55;9.60;99.90
3842;DHT22;1936;47.074;15.336;2024-03-06T10:14:01;9.50;99.90
3842;DHT22;1936;47.074;15.336;2024-03-06T10:16:07;9.50;99.90
3842;DHT22;1936;47.074;15.336;2024-03-06T10:18:13;9.50;99.90
3842;DHT22;1936;47.074;15.336;2024-03-06T10:20:20;9.80;99.90
3842;DHT22;1936;47.074;15.336;2024-03-06T10:22:23;9.70;99.90
3842;DHT22;1936;47.074;15.336;2024-03-06T10:24:28;9.80;99.90
3842;DHT22;1936;47.074;15.336;2024-03-06T10:26:31;9.90;99.90
3842;DHT22;1936;47.074;15.336;2024-03-06T10:28:35;10.00;99.90
3842;DHT22;1936;47.074;15.336;2024-03-06T10:30:39;10.00;99.90
3842;DHT22;1936;47.074;15.336;2024-03-06T10:32:45;10.00;99.90
3842;DHT22;1936;47.074;15.336;2024-03-06T10:34:48;10.10;99.90
3842;DHT22;1936;47.074;15.336;2024-03-06T10:36:55;10.20;99.90
3842;DHT22;1936;47.074;15.336;2024-03-06T10:39:00;10.20;99.90
3842;DHT22;1936;47.074;15.336;2024-03-06T10:41:05;10.20;99.90
3842;DHT22;1936;47.074;15.336;2024-03-06T10:43:11;10.10;99.90
3842;DHT22;1936;47.074;15.336;2024-03-06T10:45:15;10.00;99.90
3842;DHT22;1936;47.074;15.336;2024-03-06T10:47:20;10.10;99.90
3842;DHT22;1936;47.074;15.336;2024-03-06T10:49:25;10.20;99.90
3842;DHT22;1936;47.074;15.336;2024-03-06T10:51:30;10.40;99.90
3842;DHT22;1936;47.074;15.336;2024-03-06T10:53:36;10.30;99.90
3842;DHT22;1936;47.074;15.336;2024-03-06T10:55:42;10.40;99.90
3842;DHT22;1936;47.074;15.336;2024-03-06T10:57:47;10.30;99.90
3842;DHT22;1936;47.074;15.336;2024-03-06T10:59:52;10.20;99.90
3842;DHT22;1936;47.074;15.336;2024-03-06T11:01:56;10.10;99.90
3842;DHT22;1936;47.074;15.336;2024-03-06T11:04:04;10.30;99.90
3842;DHT22;1936;47.074;15.336;2024-03-06T11:06:08;10.20;99.90
3842;DHT22;1936;47.074;15.336;2024-03-06T11:08:13;10.00;99.90
3842;DHT22;1936;47.074;15.336;2024-03-06T11:10:31;10.00;99.90
3842;DHT22;1936;47.074;15.336;2024-03-06T11:12:36;10.00;99.90
3842;DHT22;1936;47.074;15.336;2024-03-06T11:14:41;10.00;99.90
3842;DHT22;1936;47.074;15.336;2024-03-06T11:17:05;9.90;99.90
3842;DHT22;1936;47.074;15.336;2024-03-06T11:19:10;10.20;99.90
3842;DHT22;1936;47.074;15.336;2024-03-06T11:21:29;10.20;99.90
3842;DHT22;1936;47.074;15.336;2024-03-06T11:23:33;10.20;99.90
3842;DHT22;1936;47.074;15.336;2024-03-06T11:25:58;10.10;99.90
3842;DHT22;1936;47.074;15.336;2024-03-06T11:28:03;10.20;99.90
3842;DHT22;1936;47.074;15.336;2024-03-06T11:30:08;10.30;99.90
3842;DHT22;1936;47.074;15.336;2024-03-06T11:32:17;10.40;99.90
3842;DHT22;1936;47.074;15.336;2024-03-06T11:34:22;10.40;99.90
3842;DHT22;1936;47.074;15.336;2024-03-06T11:36:25;10.40;99.90
3842;DHT22;1936;47.074;15.336;2024-03-06T11:38:31;10.50;99.90
3842;DHT22;1936;47.074;15.336;2024-03-06T11:40:43;10.60;99.90
3842;DHT22;1936;47.074;15.336;2024-03-06T11:42:48;10.70;99.90
3842;DHT22;1936;47.074;15.336;2024-03-06T11:44:55;10.70;99.90
3842;DHT22;1936;47.074;15.336;2024-03-06T11:47:00;10.70;99.90
3842;DHT22;1936;47.074;15.336;2024-03-06T11:49:03;10.90;99.90
3842;DHT22;1936;47.074;15.336;2024-03-06T11:51:09;11.10;99.90
3842;DHT22;1936;47.074;15.336;2024-03-06T11:53:13;11.00;99.90
3842;DHT22;1936;47.074;15.336;2024-03-06T11:55:17;10.90;99.90
3842;DHT22;1936;47.074;15.336;2024-03-06T11:57:20;11.00;99.90
3842;DHT22;1936;47.074;15.336;2024-03-06T11:59:28;11.00;99.90
3842;DHT22;1936;47.074;15.336;2024-03-06T12:01:32;11.20;99.90
3842;DHT22;1936;47.074;15.336;2024-03-06T12:03:35;11.20;99.90
3842;DHT22;1936;47.074;15.336;2024-03-06T12:05:37;11.60;99.90
3842;DHT22;1936;47.074;15.336;2024-03-06T12:07:47;11.40;99.90
3842;DHT22;1936;47.074;15.336;2024-03-06T12:09:52;11.50;99.90
3842;DHT22;1936;47.074;15.336;2024-03-06T12:11:56;11.30;99.90
3842;DHT22;1936;47.074;15.336;2024-03-06T12:14:00;11.10;99.90
3842;DHT22;1936;47.074;15.336;2024-03-06T12:16:08;11.50;99.90
3842;DHT22;1936;47.074;15.336;2024-03-06T12:18:12;11.90;99.90
3842;DHT22;1936;47.074;15.336;2024-03-06T12:20:16;11.90;99.90
3842;DHT22;1936;47.074;15.336;2024-03-06T12:22:19;12.10;99.90
3842;DHT22;1936;47.074;15.336;2024-03-06T12:24:27;12.30;99.90
3842;DHT22;1936;47.074;15.336;2024-03-06T12:26:30;12.20;99.90
3842;DHT22;1936;47.074;15.336;2024-03-06T12:28:34;12.40;99.90
3842;DHT22;1936;47.074;15.336;2024-03-06T12:30:41;12.40;99.90
3842;DHT22;1936;47.074;15.336;2024-03-06T12:32:57;12.50;99.90
3842;DHT22;1936;47.074;15.336;2024-03-06T12:35:01;12.70;99.90
3842;DHT22;1936;47.074;15.336;2024-03-06T12:37:08;12.50;99.90
3842;DHT22;1936;47.074;15.336;2024-03-06T12:39:15;12.60;99.90
3842;DHT22;1936;47.074;15.336;2024-03-06T12:41:23;12.40;99.90
3842;DHT22;1936;47.074;15.336;2024-03-06T12:43:28;12.10;99.90
3842;DHT22;1936;47.074;15.336;2024-03-06T12:45:32;12.00;99.90
3842;DHT22;1936;47.074;15.336;2024-03-06T12:47:36;11.90;99.90
3842;DHT22;1936;47.074;15.336;2024-03-06T12:49:41;12.60;99.90
3842;DHT22;1936;47.074;15.336;2024-03-06T12:51:44;14.00;93.80
3842;DHT22;1936;47.074;15.336;2024-03-06T12:53:47;14.90;91.70
3842;DHT22;1936;47.074;15.336;2024-03-06T12:55:51;15.50;77.60
3842;DHT22;1936;47.074;15.336;2024-03-06T12:57:54;16.00;80.00
3842;DHT22;1936;47.074;15.336;2024-03-06T12:59:57;16.10;76.50
3842;DHT22;1936;47.074;15.336;2024-03-06T13:02:00;16.30;75.50
3842;DHT22;1936;47.074;15.336;2024-03-06T13:04:04;16.20;69.50
3842;DHT22;1936;47.074;15.336;2024-03-06T13:06:12;15.80;66.20
3842;DHT22;1936;47.074;15.336;2024-03-06T13:08:16;15.40;73.50
3842;DHT22;1936;47.074;15.336;2024-03-06T13:10:19;15.40;71.60
3842;DHT22;1936;47.074;15.336;2024-03-06T13:12:24;15.40;69.80
3842;DHT22;1936;47.074;15.336;2024-03-06T13:14:28;14.90;71.70
3842;DHT22;1936;47.074;15.336;2024-03-06T13:16:33;14.70;74.50
3842;DHT22;1936;47.074;15.336;2024-03-06T13:18:37;14.60;75.00
3842;DHT22;1936;47.074;15.336;2024-03-06T13:20:40;14.30;75.10
3842;DHT22;1936;47.074;15.336;2024-03-06T13:22:46;14.10;75.00
3842;DHT22;1936;47.074;15.336;2024-03-06T13:24:49;14.10;79.80
3842;DHT22;1936;47.074;15.336;2024-03-06T13:26:53;14.00;78.30
3842;DHT22;1936;47.074;15.336;2024-03-06T13:28:56;14.00;74.20
3842;DHT22;1936;47.074;15.336;2024-03-06T13:31:02;14.10;74.00
3842;DHT22;1936;47.074;15.336;2024-03-06T13:33:08;14.50;76.00
3842;DHT22;1936;47.074;15.336;2024-03-06T13:35:13;14.80;75.50